Pagrindinis puslapis
METAR-TAF:

METAR-TAF

Oro uostai :

Kastamonu, Turkija

platuma: 41-19-01N, ilguma: 33-47-46E, Aukštis: 1073 m

Dabartinis oras

Ataskaita buvo paskelbta 9 valandos ir 12 minutes, ne 12:50 UTC
Vėjas 9 kt iš Vakarų
Temperatūra 16°C
Drėgmė 48%
Slėgis 1010 hPa
Matomumas 10 km arba daugiau
Su prošvaistėmis ne aukštis 3500 ft

METAR: LTAL 171250Z 26009KT 9999 BKN035 16/05 Q1010

Laikas: 01:02 (22:02 UTC)

Prognozė

Ataskaita buvo paskelbta 8 valandos ir 22 minutes, ne 13:40 UTC
Prognozė galioja nuo 17 metu 15 UTC su 17 metu 24 UTC
Vėjas 12 kt iš Pietvakarių
Matomumas 10 km arba daugiau
Su prošvaistėmis ne aukštis 3000 ft
Laikinai
nuo 17 metu 15 UTC su 17 metu 18 UTC
Mažai debesys ne aukštis 2500 ft, Liūtiniai kamuoliniai debesys.
Su prošvaistėmis ne aukštis 2700 ft
Su prošvaistėmis ne aukštis 8000 ft
lietus

TAF: LTAL 171340Z 1715/1724 22012KT 9999 BKN030 TEMPO 1715/1718 -SHRA FEW025CB BKN027 BKN080

Orai ataskaitas ir orų prognozės (METAR, TAF).

turimą stotys yra geltonos ir raudonos taškus žemėlapyje.

Perkelti pele per norėdami pamatyti stoties vardą.

Tada spustelėkite, norėdami matyti oro stebėjimo ir prognozės.

Norėdami pakeisti žemėlapį: spustelėkite ant žalios mygtukų su juodo kryžiaus žemyn,; žalią mygtuką su brūkšneliu, jei norite nutolinti; arba žalių rodyklių gretimoms žemėlapius.


METAR-TAF: